Terminal Aerodrome Forecast
Issued by NWS Sioux Falls, SD

Home | Current Version | Previous Version | Text Only | Print | Product List | Glossary On
Versions: 1 2 3 4 5 6 7 8 9 10 11 12 13 14 15 16
167
FTUS43 KFSD 212322
TAFHON
TAF
KHON 212322Z 2200/2224 07008KT P6SM SCT150
     FM220700 08004KT P6SM FEW250
     FM221900 09008KT P6SM FEW200=

USA.gov is the U.S. government's official web portal to all federal, state and local government web resources and services.